Time;durP1;ratioP1;P1;durP2;ratioP2;P2;SDS_P1;SDS_P2;PMS_P1;PMS_P2;Temp;Humidity;BMP_temperature;BMP_pressure;BME280_temperature;BME280_humidity;BME280_pressure;Samples;Min_cycle;Max_cycle;Signal;HPM_P1;HPM_P2
2021/12/07 00:01:04;;;;;;;30.63;21.90;;;;;;;6.92;70.53;99618.78;4984166;28;20042;-70
2021/12/07 00:03:29;;;;;;;24.13;17.83;;;;;;;7.27;70.25;99616.19;4988432;28;20785;-70
2021/12/07 00:05:55;;;;;;;26.98;20.30;;;;;;;7.10;70.54;99605.75;4986937;28;20133;-71
2021/12/07 00:08:20;;;;;;;28.38;18.98;;;;;;;6.58;71.91;99617.81;4987005;28;20116;-70
2021/12/07 00:10:48;;;;;;;26.33;17.58;;;;;;;6.53;72.31;99613.47;4985141;28;20058;-70
2021/12/07 00:13:14;;;;;;;23.98;18.88;;;;;;;6.60;71.95;99606.50;4996317;28;20813;-69
2021/12/07 00:15:40;;;;;;;25.52;17.35;;;;;;;6.75;71.16;99561.38;4996823;28;20046;-70
2021/12/07 00:18:06;;;;;;;23.73;17.30;;;;;;;7.49;69.22;99584.88;4988811;28;20062;-70
2021/12/07 00:20:31;;;;;;;21.58;18.40;;;;;;;7.68;68.03;99550.06;4981730;28;20038;-70
2021/12/07 00:23:00;;;;;;;26.73;16.45;;;;;;;7.78;68.08;99597.91;4982813;28;20093;-70
2021/12/07 00:25:26;;;;;;;31.05;19.33;;;;;;;7.37;69.03;99597.09;4986811;28;20042;-70
2021/12/07 00:27:52;;;;;;;22.25;15.38;;;;;;;6.96;70.75;99597.91;4994041;28;20053;-69
2021/12/07 00:30:18;;;;;;;20.33;14.77;;;;;;;6.85;70.81;99597.03;4987717;28;20590;-69
2021/12/07 00:32:52;;;;;;;21.73;16.40;;;;;;;6.61;71.75;99605.66;4988137;28;20046;-70
2021/12/07 00:37:50;;;;;;;22.75;17.60;;;;;;;7.11;70.76;99609.22;4987631;28;19926;-70
2021/12/07 00:40:18;;;;;;;25.27;17.67;;;;;;;7.04;70.04;99563.16;4976085;28;20509;-70
2021/12/07 00:42:45;;;;;;;19.98;15.07;;;;;;;7.09;69.97;99584.88;4975273;28;20041;-69
2021/12/07 00:45:13;;;;;;;24.80;16.75;;;;;;;6.90;70.04;99548.34;4983698;28;20042;-71
2021/12/07 00:47:39;;;;;;;23.75;16.67;;;;;;;7.20;69.75;99575.31;5013205;28;20069;-71
2021/12/07 00:50:07;;;;;;;27.20;19.50;;;;;;;7.40;68.73;99549.25;4978423;28;20051;-71
2021/12/07 00:52:32;;;;;;;28.23;19.52;;;;;;;6.40;71.65;99554.34;4987915;28;20521;-70
2021/12/07 00:54:59;;;;;;;25.05;18.17;;;;;;;6.49;72.08;99580.44;4982859;28;20038;-70
2021/12/07 00:57:25;;;;;;;30.58;18.10;;;;;;;6.72;70.97;99540.53;4981209;28;20046;-70
2021/12/07 00:59:51;;;;;;;23.65;17.33;;;;;;;7.24;70.07;99553.59;4979479;28;20039;-69
2021/12/07 01:02:17;;;;;;;26.48;16.90;;;;;;;7.89;67.93;99563.91;4994114;28;20125;-70
2021/12/07 01:04:51;;;;;;;31.02;19.98;;;;;;;8.12;66.84;99562.09;4983261;28;20055;-70
2021/12/07 01:07:36;;;;;;;22.85;17.35;;;;;;;8.11;66.37;99536.00;4984477;28;20117;-71
2021/12/07 01:26:14;;;;;;;25.40;17.25;;;;;;;7.80;68.16;99576.13;4981767;28;20158;-71
2021/12/07 01:28:44;;;;;;;30.13;18.08;;;;;;;7.93;67.58;99563.91;4985399;28;20046;-71
2021/12/07 01:44:26;;;;;;;;;;;;;;;8.45;66.00;99561.13;4980500;28;20050;-70
2021/12/07 02:00:14;;;;;;;33.10;18.67;;;;;;;8.61;65.07;99540.09;4977912;28;20811;-70
2021/12/07 02:02:40;;;;;;;32.87;20.27;;;;;;;8.66;64.93;99544.44;4979169;28;20048;-70
2021/12/07 02:05:07;;;;;;;28.70;18.40;;;;;;;8.45;65.53;99547.16;4983505;28;20490;-70
2021/12/07 02:07:32;;;;;;;25.27;15.43;;;;;;;8.43;65.42;99514.97;4985951;28;20129;-70
2021/12/07 02:10:04;;;;;;;25.45;17.20;;;;;;;8.66;64.78;99526.13;4984146;28;20181;-69
2021/12/07 02:12:41;;;;;;;25.05;14.95;;;;;;;8.57;64.62;99505.28;4983318;28;20490;-69
2021/12/07 02:15:07;;;;;;;22.75;16.65;;;;;;;8.78;64.08;99532.13;4985380;28;20042;-69
2021/12/07 02:18:14;;;;;;;23.20;13.95;;;;;;;8.41;64.69;99508.88;5104516;27;20623;-70
2021/12/07 02:20:40;;;;;;;22.80;16.20;;;;;;;8.16;66.00;99527.25;5083322;28;20041;-70
2021/12/07 02:23:05;;;;;;;22.33;16.48;;;;;;;7.41;67.28;99506.59;5077757;28;20418;-69
2021/12/07 02:25:32;;;;;;;19.75;15.38;;;;;;;7.97;66.99;99520.38;5081502;28;20560;-71
2021/12/07 02:27:59;;;;;;;22.50;16.75;;;;;;;8.32;65.83;99519.34;5081975;28;20041;-70
2021/12/07 02:30:26;;;;;;;24.48;16.45;;;;;;;8.27;66.21;99519.34;5075552;28;20082;-70
2021/12/07 02:32:54;;;;;;;21.20;17.17;;;;;;;7.72;67.87;99507.38;5083389;28;20560;-71
2021/12/07 02:35:25;;;;;;;24.85;16.48;;;;;;;8.05;66.83;99510.72;5076609;28;20051;-71
2021/12/07 02:37:51;;;;;;;26.55;17.05;;;;;;;8.39;65.81;99510.59;5081790;28;20048;-70
2021/12/07 02:40:17;;;;;;;26.63;18.02;;;;;;;8.25;65.58;99500.19;5076917;28;20052;-71
2021/12/07 02:42:44;;;;;;;22.85;16.63;;;;;;;8.05;66.46;99492.44;5080935;28;20808;-71
2021/12/07 02:45:11;;;;;;;27.13;18.70;;;;;;;8.44;65.86;99504.47;5079557;28;20051;-71
2021/12/07 02:47:36;;;;;;;25.80;17.30;;;;;;;8.52;64.78;99503.56;5068783;28;20486;-69
2021/12/07 02:50:04;;;;;;;26.13;16.10;;;;;;;8.23;65.50;99512.41;5079230;28;20072;-70
2021/12/07 02:52:29;;;;;;;29.75;18.67;;;;;;;7.88;66.48;99530.84;5077607;28;20045;-70
2021/12/07 02:54:55;;;;;;;28.35;18.50;;;;;;;8.13;66.32;99510.72;5078570;28;20098;-71
2021/12/07 02:57:21;;;;;;;27.50;18.85;;;;;;;8.24;65.91;99520.25;5067448;28;20040;-69
2021/12/07 02:59:57;;;;;;;28.65;16.75;;;;;;;8.56;65.56;99534.91;5080471;28;20476;-70
2021/12/07 03:02:23;;;;;;;25.60;18.80;;;;;;;8.56;64.93;99511.38;5075331;28;20044;-69
2021/12/07 03:05:02;;;;;;;26.88;18.48;;;;;;;8.86;64.26;99527.75;5080925;28;20052;-70
2021/12/07 03:26:41;;;;;;;27.83;18.90;;;;;;;8.42;65.19;99471.38;5073051;28;20052;-70
2021/12/07 03:29:07;;;;;;;27.95;19.38;;;;;;;8.66;65.08;99499.09;5064059;28;20056;-70
2021/12/07 03:31:33;;;;;;;30.85;17.38;;;;;;;8.78;64.81;99495.53;5058231;28;20076;-70
2021/12/07 03:34:00;;;;;;;29.25;17.50;;;;;;;8.68;64.39;99462.47;5056010;28;20106;-71
2021/12/07 03:36:27;;;;;;;26.65;17.15;;;;;;;8.96;64.29;99500.59;5061054;28;20059;-70
2021/12/07 03:38:53;;;;;;;24.85;17.67;;;;;;;8.72;64.01;99461.59;5055055;28;20059;-70
2021/12/07 03:41:19;;;;;;;32.35;19.75;;;;;;;8.47;64.75;99464.38;5056947;28;20041;-70
2021/12/07 03:43:46;;;;;;;29.95;18.40;;;;;;;8.39;65.37;99493.16;5063501;28;20049;-71
2021/12/07 03:46:13;;;;;;;24.48;17.02;;;;;;;8.56;65.33;99490.44;5064171;28;20076;-71
2021/12/07 03:48:40;;;;;;;27.30;18.13;;;;;;;8.75;64.58;99498.16;5056778;28;20052;-70
2021/12/07 03:51:06;;;;;;;29.13;18.25;;;;;;;8.43;65.11;99468.75;5060509;28;20033;-70
2021/12/07 03:53:31;;;;;;;25.58;19.10;;;;;;;8.38;65.36;99480.97;5066056;28;20056;-70
2021/12/07 03:55:58;;;;;;;26.02;18.92;;;;;;;8.53;64.82;99468.69;5053693;28;20400;-70
2021/12/07 03:58:24;;;;;;;28.08;19.33;;;;;;;8.79;64.32;99495.53;5063761;28;20048;-70
2021/12/07 04:00:50;;;;;;;30.55;20.60;;;;;;;8.46;65.65;99491.41;5067429;28;20044;-69
2021/12/07 04:03:18;;;;;;;29.75;19.35;;;;;;;8.50;64.72;99460.84;5067135;28;20036;-69
2021/12/07 04:05:55;;;;;;;27.65;21.20;;;;;;;8.50;65.40;99495.75;5058970;28;20439;-70
2021/12/07 04:08:24;;;;;;;34.40;19.63;;;;;;;6.50;71.34;99462.28;5065961;28;20355;-69
2021/12/07 04:10:50;;;;;;;35.17;19.88;;;;;;;6.39;73.28;99492.69;5062108;28;20121;-71
2021/12/07 04:13:15;;;;;;;31.42;21.52;;;;;;;6.93;71.75;99492.72;5067551;28;20053;-70
2021/12/07 04:15:41;;;;;;;32.63;20.95;;;;;;;6.95;71.25;99486.66;5056237;28;20077;-69
2021/12/07 04:18:07;;;;;;;31.10;21.30;;;;;;;6.80;72.41;99499.69;5062613;28;20575;-69
2021/12/07 04:20:33;;;;;;;30.23;19.27;;;;;;;6.52;72.78;99463.16;5064630;28;20044;-68
2021/12/07 04:22:59;;;;;;;37.97;22.42;;;;;;;5.70;74.92;99469.84;5066245;28;20044;-71
2021/12/07 04:25:25;;;;;;;33.83;21.80;;;;;;;5.54;76.93;99504.47;5065362;28;20048;-71
2021/12/07 04:28:16;;;;;;;38.22;22.20;;;;;;;6.79;73.07;99499.66;5042889;27;20617;-69
2021/12/07 04:30:43;;;;;;;36.88;23.52;;;;;;;7.01;71.72;99480.56;5020034;28;20056;-70
2021/12/07 04:33:11;;;;;;;41.83;23.35;;;;;;;6.74;72.22;99491.84;5020015;28;20390;-70
2021/12/07 04:35:38;;;;;;;30.95;21.95;;;;;;;6.14;74.21;99491.75;5021828;28;20053;-71
2021/12/07 04:38:04;;;;;;;32.60;21.70;;;;;;;6.46;74.36;99503.97;5021918;28;20046;-71
2021/12/07 04:40:32;;;;;;;28.55;18.77;;;;;;;6.76;72.66;99493.59;5024035;28;20137;-71
2021/12/07 04:42:58;;;;;;;35.70;21.40;;;;;;;6.61;73.57;99495.34;5023647;28;20056;-70
2021/12/07 04:58:35;;;;;;;32.38;23.27;;;;;;;6.99;73.37;99492.72;5022778;28;20095;-71
2021/12/07 05:02:18;;;;;;;48.53;25.08;;;;;;;5.98;76.21;99503.00;5029402;28;20659;-70
2021/12/07 05:04:43;;;;;;;34.10;22.90;;;;;;;6.58;74.17;99488.38;5007114;28;20157;-71
2021/12/07 05:07:16;;;;;;;40.90;24.75;;;;;;;5.40;76.97;99456.69;5002178;28;20050;-70
2021/12/07 05:14:37;;;;;;;38.90;26.63;;;;;;;5.36;77.61;99448.03;5012685;28;20048;-71
2021/12/07 05:34:29;;;;;;;78.55;27.30;;;;;;;5.53;78.36;99500.13;5024471;28;20064;-70
2021/12/07 05:38:57;;;;;;;38.20;23.48;;;;;;;5.90;78.72;99472.56;4842081;29;20560;-70
2021/12/07 05:41:24;;;;;;;37.47;25.52;;;;;;;6.85;75.48;99455.34;4890238;29;20048;-69
2021/12/07 05:43:51;;;;;;;41.55;26.67;;;;;;;7.47;73.36;99490.94;4896400;29;20108;-71
2021/12/07 05:46:16;;;;;;;41.65;27.33;;;;;;;7.81;71.75;99483.84;4905298;29;20390;-70
2021/12/07 05:48:42;;;;;;;43.10;28.52;;;;;;;8.08;70.41;99479.38;4895046;29;20184;-66
2021/12/07 05:51:08;;;;;;;42.17;27.80;;;;;;;8.06;69.88;99448.94;4901833;29;20079;-70
2021/12/07 05:53:35;;;;;;;40.20;25.10;;;;;;;8.03;69.84;99468.09;4902842;29;20364;-71
2021/12/07 05:56:01;;;;;;;40.38;24.63;;;;;;;8.37;68.96;99501.88;4903273;29;20052;-70
2021/12/07 06:00:23;;;;;;;44.95;27.27;;;;;;;8.40;68.55;99492.28;5054657;28;20641;-72
2021/12/07 06:02:49;;;;;;;39.85;26.23;;;;;;;8.55;67.99;99501.81;4989919;28;20045;-71
2021/12/07 06:06:11;;;;;;;49.03;28.00;;;;;;;8.28;68.61;99504.53;5049020;28;20637;-69
2021/12/07 06:08:37;;;;;;;37.95;25.30;;;;;;;8.55;67.83;99503.56;5002045;28;20421;-70
2021/12/07 06:11:02;;;;;;;37.35;25.08;;;;;;;8.74;66.96;99497.31;4998598;28;20124;-70
2021/12/07 06:13:28;;;;;;;36.47;24.15;;;;;;;8.80;66.57;99472.84;5003135;28;20355;-71
2021/12/07 06:15:54;;;;;;;39.22;26.98;;;;;;;9.01;66.24;99497.97;5000591;28;20077;-70
2021/12/07 06:18:19;;;;;;;34.80;25.05;;;;;;;9.18;66.14;99500.44;5002529;28;20037;-71
2021/12/07 06:20:45;;;;;;;30.80;22.83;;;;;;;6.84;71.85;99498.81;4999227;28;20093;-69
2021/12/07 06:23:14;;;;;;;31.42;21.00;;;;;;;7.61;71.30;99494.38;4998041;28;20120;-70
2021/12/07 06:25:39;;;;;;;30.77;19.80;;;;;;;8.11;68.97;99465.44;4997887;28;20053;-70
2021/12/07 06:28:05;;;;;;;31.83;18.95;;;;;;;8.51;68.06;99499.22;4989071;28;20051;-69
2021/12/07 06:30:31;;;;;;;31.15;20.63;;;;;;;8.58;67.52;99506.13;5001194;28;21003;-70
2021/12/07 06:32:56;;;;;;;40.25;22.05;;;;;;;7.03;71.17;99507.50;5001809;28;20782;-69
2021/12/07 06:35:21;;;;;;;37.72;22.08;;;;;;;7.04;72.72;99496.19;5000787;28;20049;-69
2021/12/07 06:40:17;;;;;;;31.98;20.35;;;;;;;8.55;68.51;99488.72;5021738;27;20612;-70
2021/12/07 06:42:42;;;;;;;29.67;18.63;;;;;;;8.66;67.07;99452.03;5020437;28;20050;-69
2021/12/07 06:45:10;;;;;;;28.50;19.20;;;;;;;7.79;69.26;99484.72;5014282;28;20367;-66
2021/12/07 06:47:36;;;;;;;27.90;18.65;;;;;;;6.14;74.36;99447.47;5015026;28;20351;-68
2021/12/07 06:50:04;;;;;;;29.55;20.17;;;;;;;6.74;74.76;99471.88;5015579;28;20053;-67
2021/12/07 06:52:30;;;;;;;23.10;18.13;;;;;;;7.86;71.12;99464.69;5020683;28;20065;-69
2021/12/07 06:54:57;;;;;;;27.73;19.20;;;;;;;8.26;68.61;99441.81;5021487;28;20044;-70
2021/12/07 06:57:23;;;;;;;28.10;19.05;;;;;;;8.64;67.60;99444.22;5021944;28;20061;-69
2021/12/07 06:59:48;;;;;;;26.85;18.38;;;;;;;8.96;66.66;99468.34;5014105;28;20565;-68
2021/12/07 07:02:14;;;;;;;24.92;19.05;;;;;;;8.92;67.13;99475.38;5007411;28;20145;-67
2021/12/07 07:04:39;;;;;;;38.53;20.20;;;;;;;9.12;66.42;99467.34;5014842;28;20050;-70
2021/12/07 07:07:05;;;;;;;36.00;22.95;;;;;;;8.38;67.48;99457.44;5015994;28;20050;-69
2021/12/07 07:09:30;;;;;;;31.92;21.48;;;;;;;7.34;71.10;99437.03;5008382;28;20041;-70
2021/12/07 07:11:56;;;;;;;28.02;20.65;;;;;;;6.68;74.00;99453.63;5012244;28;20030;-70
2021/12/07 07:14:21;;;;;;;28.52;21.83;;;;;;;7.13;73.05;99469.25;5014077;28;20053;-70
2021/12/07 07:16:47;;;;;;;34.40;23.55;;;;;;;5.82;77.61;99461.22;5016334;28;20046;-70
2021/12/07 07:19:12;;;;;;;35.42;23.08;;;;;;;6.63;76.50;99449.28;5020788;28;20077;-70
2021/12/07 07:21:38;;;;;;;30.58;20.85;;;;;;;7.04;73.90;99404.91;5021139;28;20046;-70
2021/12/07 07:24:03;;;;;;;32.30;20.58;;;;;;;8.10;70.97;99441.06;5021290;28;20049;-70
2021/12/07 07:26:29;;;;;;;30.13;20.90;;;;;;;8.39;69.58;99458.31;5020296;28;20561;-69
2021/12/07 07:28:54;;;;;;;26.42;22.02;;;;;;;8.73;68.57;99464.16;5011953;28;20433;-70
2021/12/07 07:31:20;;;;;;;50.17;21.75;;;;;;;8.28;69.37;99431.38;5007383;28;20081;-70
2021/12/07 07:33:45;;;;;;;32.70;20.13;;;;;;;8.91;67.74;99457.94;5020438;28;20045;-69
2021/12/07 07:36:11;;;;;;;35.03;22.48;;;;;;;8.85;67.27;99437.94;5018563;28;20057;-69
2021/12/07 07:38:36;;;;;;;31.45;21.92;;;;;;;8.33;68.51;99466.16;5019630;28;20787;-70
2021/12/07 07:41:02;;;;;;;39.20;22.98;;;;;;;8.04;69.58;99475.91;5018812;28;20663;-70
2021/12/07 07:43:29;;;;;;;36.22;21.83;;;;;;;8.11;69.45;99465.44;5017338;28;20126;-69
2021/12/07 07:45:55;;;;;;;66.00;23.45;;;;;;;6.28;75.55;99464.00;5016212;28;20050;-69
2021/12/07 07:48:22;;;;;;;34.03;22.45;;;;;;;7.07;74.67;99456.19;5014401;28;20049;-71
2021/12/07 07:50:49;;;;;;;37.53;23.33;;;;;;;7.40;72.92;99463.13;5006175;28;20064;-70
2021/12/07 07:53:15;;;;;;;34.67;21.77;;;;;;;7.76;71.89;99471.69;5006634;28;20041;-70
2021/12/07 07:55:42;;;;;;;34.42;22.83;;;;;;;8.16;70.25;99459.31;5003865;28;20045;-70
2021/12/07 07:58:08;;;;;;;37.42;20.73;;;;;;;8.31;69.38;99467.91;4998470;28;20124;-70
2021/12/07 08:00:34;;;;;;;27.85;20.20;;;;;;;8.49;69.31;99469.59;5005970;28;20062;-72
2021/12/07 08:03:00;;;;;;;27.23;15.90;;;;;;;8.40;69.12;99470.50;5003125;28;20030;-68
2021/12/07 08:05:25;;;;;;;29.50;16.85;;;;;;;7.70;72.15;99461.25;5001034;28;20548;-67
2021/12/07 08:07:51;;;;;;;27.77;19.90;;;;;;;8.44;70.04;99461.78;5005767;28;20045;-67
2021/12/07 08:10:20;;;;;;;30.67;19.80;;;;;;;8.60;68.91;99457.31;5005877;28;20122;-68
2021/12/07 08:12:47;;;;;;;30.33;17.88;;;;;;;8.84;68.23;99461.47;5005423;28;20073;-68
2021/12/07 08:15:13;;;;;;;23.60;16.95;;;;;;;9.09;67.61;99456.91;5007421;28;20136;-68
2021/12/07 08:17:38;;;;;;;29.38;17.65;;;;;;;8.94;67.48;99459.66;5007382;28;20132;-69
2021/12/07 08:20:05;;;;;;;28.27;18.80;;;;;;;8.99;67.67;99450.00;5006299;28;20078;-69
2021/12/07 08:22:30;;;;;;;26.35;16.63;;;;;;;9.15;66.62;99421.94;4999676;28;20149;-70
2021/12/07 08:24:57;;;;;;;23.67;14.60;;;;;;;9.46;66.54;99456.53;5006901;28;20359;-68
2021/12/07 08:27:23;;;;;;;25.40;16.92;;;;;;;9.48;66.55;99450.41;5008358;28;20053;-69
2021/12/07 08:29:49;;;;;;;23.35;16.75;;;;;;;9.00;66.72;99442.16;5000586;28;20048;-68
2021/12/07 08:32:15;;;;;;;23.83;16.05;;;;;;;8.66;69.31;99455.53;5002387;28;20049;-70
2021/12/07 08:34:40;;;;;;;22.88;14.65;;;;;;;8.30;69.97;99450.53;5006725;28;20521;-69
2021/12/07 08:37:06;;;;;;;23.20;14.77;;;;;;;8.21;69.43;99465.38;5000354;28;20513;-68
2021/12/07 08:39:34;;;;;;;19.73;13.55;;;;;;;7.49;72.03;99443.94;4997568;28;20510;-67
2021/12/07 08:42:02;;;;;;;25.85;17.25;;;;;;;8.41;69.93;99457.44;5004595;28;20041;-72
2021/12/07 08:44:28;;;;;;;19.77;16.60;;;;;;;8.62;68.66;99434.66;5003985;28;20525;-69
2021/12/07 08:46:53;;;;;;;21.95;14.50;;;;;;;8.76;68.39;99452.84;5003047;28;20113;-69
2021/12/07 08:49:20;;;;;;;17.95;12.30;;;;;;;8.39;68.86;99459.16;5002126;28;20050;-70
2021/12/07 08:51:45;;;;;;;18.55;15.13;;;;;;;8.23;68.79;99434.88;5004312;28;20046;-69
2021/12/07 08:59:54;;;;;;;21.70;15.30;;;;;;;8.53;68.28;99453.00;4996153;28;20121;-69
2021/12/07 09:02:23;;;;;;;18.30;14.18;;;;;;;8.03;69.44;99462.88;5005578;28;20042;-69
2021/12/07 09:04:49;;;;;;;18.98;13.55;;;;;;;8.11;69.78;99461.06;5007599;28;20048;-67
2021/12/07 09:07:15;;;;;;;21.85;15.05;;;;;;;7.70;71.02;99472.59;5001518;28;20060;-70
2021/12/07 09:09:43;;;;;;;22.42;15.25;;;;;;;7.62;72.11;99500.47;5003040;28;20057;-68
2021/12/07 09:12:10;;;;;;;29.90;17.40;;;;;;;7.63;72.77;99496.09;4997780;28;20057;-67
2021/12/07 09:14:37;;;;;;;32.10;16.92;;;;;;;7.49;73.38;99491.81;4992293;28;20041;-68
2021/12/07 09:17:04;;;;;;;27.70;16.30;;;;;;;7.18;73.85;99451.84;4998870;28;20046;-66
2021/12/07 09:19:31;;;;;;;23.42;14.38;;;;;;;7.71;72.89;99460.41;4990005;28;20058;-68
2021/12/07 09:21:56;;;;;;;23.30;15.68;;;;;;;8.48;70.22;99458.28;5001065;28;20567;-67
2021/12/07 09:24:22;;;;;;;25.05;17.83;;;;;;;7.23;73.02;99415.31;5004023;28;20022;-67
2021/12/07 09:26:48;;;;;;;27.33;18.00;;;;;;;7.90;72.90;99419.41;5001350;28;20037;-69
2021/12/07 09:29:14;;;;;;;26.00;17.05;;;;;;;7.45;73.85;99424.81;5005510;28;20165;-67
2021/12/07 09:31:41;;;;;;;27.15;16.30;;;;;;;8.49;70.74;99439.09;5005729;28;20244;-66
2021/12/07 09:34:08;;;;;;;20.73;14.38;;;;;;;9.04;68.92;99428.16;5005699;28;20057;-66
2021/12/07 09:36:34;;;;;;;21.67;15.10;;;;;;;9.18;68.27;99430.66;5005491;28;20049;-68
2021/12/07 09:39:02;;;;;;;22.60;16.67;;;;;;;9.21;67.88;99427.13;5005242;28;20413;-71
2021/12/07 09:41:28;;;;;;;23.55;16.73;;;;;;;9.20;67.20;99401.81;5001693;28;20038;-71
2021/12/07 09:43:54;;;;;;;22.90;15.25;;;;;;;7.35;71.50;99420.47;5037612;28;20041;-71
2021/12/07 09:46:20;;;;;;;24.35;16.42;;;;;;;5.85;77.52;99374.47;5004135;28;20058;-71
2021/12/07 09:48:46;;;;;;;17.55;13.73;;;;;;;7.05;77.02;99395.38;5006261;28;20132;-70
2021/12/07 09:51:16;;;;;;;18.88;13.73;;;;;;;7.59;73.68;99352.53;5006106;28;20473;-70
2021/12/07 09:53:43;;;;;;;22.13;14.88;;;;;;;8.56;71.10;99383.25;5003282;28;20478;-70
2021/12/07 09:56:10;;;;;;;20.30;14.27;;;;;;;8.98;69.38;99352.34;5005248;28;20045;-70
2021/12/07 09:58:37;;;;;;;16.35;12.40;;;;;;;9.23;68.21;99358.16;5003018;28;20038;-70
2021/12/07 10:01:05;;;;;;;22.30;15.15;;;;;;;9.39;67.86;99365.81;4999664;28;20125;-71
2021/12/07 10:03:31;;;;;;;20.58;14.65;;;;;;;9.13;68.42;99384.44;4993019;28;20041;-71
2021/12/07 10:05:57;;;;;;;18.05;12.60;;;;;;;8.90;68.31;99364.66;5002692;28;20038;-71
2021/12/07 10:10:31;;;;;;;19.67;13.48;;;;;;;9.28;68.25;99360.72;5038623;28;20609;-70
2021/12/07 10:12:58;;;;;;;16.60;12.95;;;;;;;9.29;68.15;99326.69;5011560;28;20104;-71
2021/12/07 10:15:24;;;;;;;16.73;11.23;;;;;;;9.25;68.63;99347.69;5014842;28;20042;-70
2021/12/07 10:18:13;;;;;;;14.02;10.25;;;;;;;9.42;68.17;99350.97;5016129;28;20203;-71
2021/12/07 10:20:50;;;;;;;10.80;7.60;;;;;;;9.43;68.14;99320.41;5022691;28;20050;-71
2021/12/07 10:23:16;;;;;;;9.68;7.18;;;;;;;9.43;68.04;99351.81;5016017;28;20417;-71
2021/12/07 10:25:46;;;;;;;10.18;6.40;;;;;;;9.85;66.96;99354.75;5016868;28;20045;-71
2021/12/07 10:28:27;;;;;;;8.63;6.70;;;;;;;9.48;67.88;99356.13;5009669;28;20140;-71
2021/12/07 10:30:53;;;;;;;10.45;6.70;;;;;;;9.55;67.70;99340.31;5021390;28;20089;-71
2021/12/07 10:33:38;;;;;;;8.25;5.97;;;;;;;8.97;68.90;99300.91;5022766;28;20063;-70
2021/12/07 10:36:19;;;;;;;9.30;5.90;;;;;;;9.21;68.69;99325.91;5022465;28;20131;-70
2021/12/07 10:39:08;;;;;;;9.88;7.10;;;;;;;9.64;67.50;99334.97;5007249;28;20092;-71
2021/12/07 10:41:44;;;;;;;10.13;6.60;;;;;;;9.64;67.50;99334.97;5004511;28;20058;-70
2021/12/07 10:44:11;;;;;;;14.13;7.53;;;;;;;8.83;68.97;99310.66;5005394;28;20133;-70
2021/12/07 10:46:41;;;;;;;11.73;7.38;;;;;;;8.93;68.95;99317.50;5020900;28;20041;-71
2021/12/07 10:49:30;;;;;;;12.18;7.15;;;;;;;9.50;67.79;99356.09;5004504;28;20050;-71
2021/12/07 10:52:04;;;;;;;11.32;6.50;;;;;;;9.05;67.87;99325.22;5021960;28;20048;-70
2021/12/07 10:56:32;;;;;;;9.00;6.32;;;;;;;9.25;68.19;99359.03;5014236;28;21045;-70
2021/12/07 10:59:08;;;;;;;9.27;6.88;;;;;;;9.36;67.18;99308.28;5008982;28;20052;-71
2021/12/07 11:01:40;;;;;;;11.82;7.63;;;;;;;8.32;69.98;99320.69;5019936;28;20501;-71
2021/12/07 11:04:23;;;;;;;12.30;7.63;;;;;;;8.99;69.91;99356.69;5009064;28;20054;-71
2021/12/07 11:07:13;;;;;;;11.38;7.38;;;;;;;9.63;67.55;99355.06;5006169;28;20050;-70
2021/12/07 11:09:58;;;;;;;10.95;8.55;;;;;;;9.82;66.32;99358.28;5008142;28;20497;-71
2021/12/07 11:12:26;;;;;;;12.85;6.25;;;;;;;9.71;66.62;99347.94;5009991;28;20049;-70
2021/12/07 11:14:59;;;;;;;15.88;7.95;;;;;;;9.17;67.30;99325.97;5018070;28;20041;-70
2021/12/07 11:17:33;;;;;;;11.68;8.57;;;;;;;9.35;66.79;99325.75;5003897;28;20054;-70
2021/12/07 11:20:00;;;;;;;11.75;7.00;;;;;;;8.72;69.31;99362.22;5012819;28;20046;-70
2021/12/07 11:24:17;;;;;;;12.70;8.18;;;;;;;8.95;68.19;99331.44;5070039;27;2066201;-71
2021/12/07 11:29:40;;;;;;;14.43;8.63;;;;;;;7.87;71.09;99338.47;5080192;28;20058;-68
2021/12/07 11:32:09;;;;;;;14.88;8.75;;;;;;;8.07;71.42;99339.16;5095826;28;20066;-69
2021/12/07 11:36:27;;;;;;;14.10;7.70;;;;;;;8.42;69.79;99330.22;5056104;28;20619;-71
2021/12/07 11:38:54;;;;;;;12.98;7.28;;;;;;;8.73;69.02;99340.38;5000076;28;20093;-70
2021/12/07 11:42:28;;;;;;;17.38;8.45;;;;;;;9.33;67.27;99330.13;5115657;27;20622;-70
2021/12/07 11:44:55;;;;;;;11.77;8.35;;;;;;;9.13;67.54;99324.25;5075111;28;20039;-70
2021/12/07 11:48:19;;;;;;;14.00;7.28;;;;;;;9.26;67.18;99311.00;5039296;28;20611;-70
2021/12/07 11:50:48;;;;;;;13.10;7.68;;;;;;;9.50;66.48;99316.81;4996559;28;20408;-70
2021/12/07 11:53:23;;;;;;;12.57;8.57;;;;;;;9.42;66.66;99330.00;5002567;28;20050;-68
2021/12/07 11:55:54;;;;;;;16.35;7.85;;;;;;;8.54;68.25;99324.88;4987534;28;20055;-70
2021/12/07 11:58:20;;;;;;;14.48;9.18;;;;;;;8.98;67.93;99307.84;5012949;28;20165;-70
2021/12/07 12:00:50;;;;;;;18.20;8.98;;;;;;;8.78;68.69;99310.72;5002841;28;20506;-70
2021/12/07 12:03:19;;;;;;;17.75;9.95;;;;;;;8.62;68.74;99282.97;5002176;28;20034;-71
2021/12/07 12:05:47;;;;;;;16.88;9.73;;;;;;;9.18;67.93;99304.16;5021950;28;20038;-70
2021/12/07 12:08:16;;;;;;;18.02;8.65;;;;;;;7.71;72.08;99285.47;4999646;28;20058;-70
2021/12/07 12:10:46;;;;;;;13.32;8.20;;;;;;;8.56;70.00;99289.13;4995569;28;20070;-70
2021/12/07 12:13:22;;;;;;;12.50;7.43;;;;;;;8.99;68.17;99288.69;4981571;28;20059;-69
2021/12/07 12:16:33;;;;;;;10.57;6.95;;;;;;;8.80;69.33;99310.66;5028014;27;20668;-69
2021/12/07 12:19:07;;;;;;;12.60;7.60;;;;;;;9.27;67.59;99312.75;4982454;28;20042;-70
2021/12/07 12:21:40;;;;;;;12.88;7.75;;;;;;;9.43;66.80;99302.06;4971199;28;20050;-70
2021/12/07 12:24:28;;;;;;;11.90;8.23;;;;;;;9.13;66.88;99283.28;4978842;28;20052;-68
2021/12/07 12:27:11;;;;;;;14.65;7.72;;;;;;;9.38;66.86;99285.56;4972115;28;20051;-70
2021/12/07 12:29:38;;;;;;;;;;;;;;;9.33;67.85;99329.28;4976835;28;20100;-70
2021/12/07 12:32:04;;;;;;;11.85;8.57;;;;;;;9.81;66.25;99326.84;4972861;28;20371;-71
2021/12/07 12:34:47;;;;;;;10.07;7.28;;;;;;;9.20;66.99;99323.28;4983575;28;20073;-71
2021/12/07 12:37:24;;;;;;;17.05;9.13;;;;;;;9.13;67.56;99285.00;4978436;28;20051;-69
2021/12/07 12:39:52;;;;;;;16.10;9.00;;;;;;;9.56;66.58;99313.25;4978331;28;20053;-70
2021/12/07 12:44:25;;;;;;;11.32;8.32;;;;;;;9.05;67.28;99282.50;5087647;27;20682;-70
2021/12/07 12:46:59;;;;;;;12.50;9.05;;;;;;;9.52;66.29;99286.25;5048909;28;20486;-70
2021/12/07 12:49:36;;;;;;;15.23;9.15;;;;;;;9.46;67.52;99305.53;5053420;28;20094;-70
2021/12/07 12:52:02;;;;;;;16.02;9.82;;;;;;;9.36;66.97;99287.34;5048061;28;20160;-69
2021/12/07 12:54:41;;;;;;;12.13;8.88;;;;;;;9.47;66.87;99316.88;5047642;28;20472;-70
2021/12/07 12:57:16;;;;;;;14.27;9.73;;;;;;;9.53;66.30;99285.38;5062090;28;20044;-70
2021/12/07 12:59:46;;;;;;;13.60;8.95;;;;;;;9.71;65.48;99310.41;5058162;28;20139;-69
2021/12/07 13:02:13;;;;;;;18.45;9.95;;;;;;;10.03;65.23;99332.66;5062730;28;20409;-70
2021/12/07 13:04:40;;;;;;;12.98;8.25;;;;;;;9.09;66.97;99342.63;5062725;28;20489;-71
2021/12/07 13:08:19;;;;;;;15.00;9.75;;;;;;;9.39;66.98;99308.22;5026180;27;20642;-69
2021/12/07 13:11:29;;;;;;;11.48;8.27;;;;;;;9.73;66.16;99332.22;5009798;28;20075;-70
2021/12/07 13:13:54;;;;;;;13.75;7.97;;;;;;;9.90;65.36;99322.38;5005901;28;20042;-70
2021/12/07 13:16:20;;;;;;;12.48;8.82;;;;;;;9.41;65.86;99291.63;5006494;28;20697;-69
2021/12/07 13:18:45;;;;;;;11.63;8.20;;;;;;;9.87;65.96;99332.88;5006339;28;20061;-71
2021/12/07 13:21:29;;;;;;;15.43;10.30;;;;;;;10.10;65.20;99335.16;5016665;28;20524;-72
2021/12/07 13:24:04;;;;;;;13.35;8.82;;;;;;;10.07;64.84;99340.47;5015981;28;20073;-71
2021/12/07 13:26:42;;;;;;;14.45;9.40;;;;;;;9.89;65.13;99340.72;5043121;28;20370;-70
2021/12/07 13:29:23;;;;;;;15.77;10.15;;;;;;;9.28;67.49;99338.03;5037499;28;20844;-71
2021/12/07 13:31:52;;;;;;;19.80;11.57;;;;;;;8.80;68.88;99342.06;5017312;28;20057;-71
2021/12/07 13:34:28;;;;;;;18.77;11.20;;;;;;;9.27;67.23;99307.53;5015251;28;20058;-70
2021/12/07 13:36:58;;;;;;;16.55;10.18;;;;;;;9.79;65.94;99345.25;5013450;28;20046;-71
2021/12/07 13:39:23;;;;;;;10.68;8.68;;;;;;;9.86;65.73;99346.03;5006372;28;20038;-71
2021/12/07 13:41:56;;;;;;;17.85;9.65;;;;;;;10.00;65.29;99341.44;5007409;28;20120;-70
2021/12/07 13:44:22;;;;;;;16.70;11.02;;;;;;;8.81;68.11;99323.75;5011874;28;20045;-70